Time;durP1;ratioP1;P1;durP2;ratioP2;P2;SDS_P1;SDS_P2;PMS_P1;PMS_P2;Temp;Humidity;BMP_temperature;BMP_pressure;BME280_temperature;BME280_humidity;BME280_pressure;Samples;Min_cycle;Max_cycle;Signal;HPM_P1;HPM_P2
2021/09/27 00:01:14;;;;;;;;;10.50;8.00;;;;;20.03;72.77;101271.19;4918317;28;45347;-59
2021/09/27 00:03:40;;;;;;;;;10.00;8.50;;;;;20.04;72.42;101264.84;4915118;28;45497;-59
2021/09/27 00:06:08;;;;;;;;;9.50;7.00;;;;;20.03;72.72;101266.69;4914993;28;45547;-59
2021/09/27 00:08:34;;;;;;;;;6.25;6.00;;;;;20.04;72.49;101267.50;4915180;28;45546;-59
2021/09/27 00:11:20;;;;;;;;;8.00;8.00;;;;;20.02;72.74;101267.66;4914692;28;45375;-59
2021/09/27 00:13:52;;;;;;;;;7.00;7.00;;;;;20.00;72.49;101269.63;4917243;28;45516;-59
2021/09/27 00:16:18;;;;;;;;;8.00;8.00;;;;;20.00;72.60;101263.44;4920791;28;45352;-60
2021/09/27 00:18:44;;;;;;;;;6.50;6.50;;;;;20.01;72.93;101265.13;4915586;28;45293;-60
2021/09/27 00:21:16;;;;;;;;;6.50;5.25;;;;;20.01;73.06;101265.97;4919858;28;46044;-59
2021/09/27 00:23:42;;;;;;;;;8.75;6.75;;;;;20.03;73.05;101264.00;4916613;28;45501;-60
2021/09/27 00:26:08;;;;;;;;;7.50;7.50;;;;;20.04;72.50;101252.31;4920123;28;45426;-59
2021/09/27 00:28:34;;;;;;;;;5.75;5.75;;;;;20.06;72.30;101252.16;4914884;28;45568;-59
2021/09/27 00:31:00;;;;;;;;;6.50;6.25;;;;;20.07;72.64;101248.53;4918776;28;46472;-59
2021/09/27 00:33:27;;;;;;;;;8.00;7.50;;;;;20.09;72.97;101246.56;4920989;28;45487;-59
2021/09/27 00:35:53;;;;;;;;;6.25;6.25;;;;;20.08;72.64;101244.88;4915211;28;45393;-59
2021/09/27 00:38:19;;;;;;;;;9.00;7.75;;;;;20.13;72.54;101249.78;4912990;28;45367;-59
2021/09/27 00:40:50;;;;;;;;;6.50;6.50;;;;;20.12;72.30;101250.78;4913137;28;46084;-59
2021/09/27 00:43:16;;;;;;;;;6.00;6.00;;;;;20.12;72.36;101251.63;4913393;28;45572;-59
2021/09/27 00:45:46;;;;;;;;;9.00;7.00;;;;;20.12;72.40;101256.13;4915047;28;45372;-59
2021/09/27 00:48:12;;;;;;;;;8.75;6.50;;;;;20.13;72.49;101255.13;4915920;28;45368;-59
2021/09/27 00:50:42;;;;;;;;;8.50;7.00;;;;;20.12;72.49;101256.13;4915266;28;45372;-59
2021/09/27 00:53:34;;;;;;;;;7.25;5.25;;;;;20.10;72.22;101250.91;4914915;28;45218;-59
2021/09/27 00:56:00;;;;;;;;;6.50;6.50;;;;;20.08;72.31;101252.91;4920127;28;45401;-58
2021/09/27 00:58:28;;;;;;;;;7.00;6.50;;;;;20.08;72.02;101250.22;4923658;28;45368;-59
2021/09/27 01:00:54;;;;;;;;;7.00;6.00;;;;;20.08;72.63;101250.22;4922962;28;45241;-59
2021/09/27 01:03:21;;;;;;;;;7.75;7.75;;;;;20.05;72.44;101247.81;4922911;28;45185;-59
2021/09/27 01:06:02;;;;;;;;;8.25;6.25;;;;;20.05;72.09;101242.47;4923507;28;45353;-59
2021/09/27 01:08:54;;;;;;;;;6.50;6.50;;;;;20.04;72.27;101238.09;4923091;28;45173;-59
2021/09/27 01:11:40;;;;;;;;;8.00;8.00;;;;;20.03;72.55;101239.09;4923066;28;46136;-59
2021/09/27 01:14:18;;;;;;;;;9.00;6.75;;;;;20.00;71.98;101229.53;4923025;28;45249;-59
2021/09/27 01:16:59;;;;;;;;;9.00;7.00;;;;;19.98;72.34;101225.28;4920500;28;45319;-59
2021/09/27 01:19:33;;;;;;;;;8.00;7.50;;;;;19.96;72.21;101221.91;4923073;28;45177;-59
2021/09/27 01:22:30;;;;;;;;;8.50;7.00;;;;;19.94;72.09;101222.06;4922916;28;45614;-59
2021/09/27 01:25:27;;;;;;;;;8.00;6.75;;;;;19.92;71.99;101215.16;4919435;28;45400;-59
2021/09/27 01:28:14;;;;;;;;;8.50;8.50;;;;;19.90;72.45;101222.47;4923239;28;45201;-59
2021/09/27 01:30:52;;;;;;;;;8.25;6.75;;;;;19.88;72.44;101217.25;4923002;28;45554;-59
2021/09/27 01:33:44;;;;;;;;;6.50;6.00;;;;;19.85;72.50;101228.25;4922973;28;46301;-59
2021/09/27 01:36:32;;;;;;;;;7.50;7.50;;;;;19.83;72.14;101222.19;4915079;28;45249;-59
2021/09/27 01:39:19;;;;;;;;;9.50;8.00;;;;;19.81;72.30;101216.13;4923045;28;45367;-59
2021/09/27 01:42:06;;;;;;;;;9.00;7.25;;;;;19.81;72.50;101213.44;4922979;28;45455;-59
2021/09/27 01:44:51;;;;;;;;;9.00;5.50;;;;;19.79;72.00;101220.78;4922854;28;45255;-59
2021/09/27 01:47:20;;;;;;;;;6.00;5.75;;;;;19.77;72.48;101220.06;4923043;28;45169;-59
2021/09/27 01:49:55;;;;;;;;;8.25;7.25;;;;;19.76;72.14;101215.72;4922995;28;45502;-59
2021/09/27 01:52:37;;;;;;;;;8.25;6.50;;;;;19.75;71.94;101212.19;4922955;28;45185;-59
2021/09/27 01:55:21;;;;;;;;;9.00;7.00;;;;;19.73;72.19;101206.13;4922626;28;46352;-59
2021/09/27 01:58:12;;;;;;;;;7.50;7.00;;;;;19.73;72.06;101211.47;4922875;28;45543;-59
2021/09/27 02:00:56;;;;;;;;;9.50;6.00;;;;;19.73;72.02;101194.59;4923029;28;45368;-59
2021/09/27 02:03:45;;;;;;;;;5.50;5.50;;;;;19.72;72.25;101191.06;4922608;28;45397;-59
2021/09/27 02:06:38;;;;;;;;;9.25;7.50;;;;;19.72;72.03;101192.91;4925871;28;45592;-59
2021/09/27 02:09:20;;;;;;;;;13.50;8.25;;;;;19.72;72.45;101184.88;4925733;28;45478;-59
2021/09/27 02:12:04;;;;;;;;;8.75;6.25;;;;;19.72;72.58;101184.88;4926171;28;45450;-59
2021/09/27 02:14:53;;;;;;;;;10.25;8.50;;;;;19.72;72.22;101180.38;4925930;28;45178;-59
2021/09/27 02:17:26;;;;;;;;;10.50;7.50;;;;;19.72;72.21;101185.72;4925673;28;46193;-59
2021/09/27 02:20:13;;;;;;;;;7.50;7.25;;;;;19.71;72.46;101186.72;4925737;28;45326;-59
2021/09/27 02:22:51;;;;;;;;;7.00;7.00;;;;;19.72;72.62;101182.22;4925810;28;45402;-59
2021/09/27 02:25:17;;;;;;;;;11.50;8.50;;;;;19.70;72.54;101178.84;4925702;28;45252;-59
2021/09/27 02:27:44;;;;;;;;;12.50;8.50;;;;;19.68;72.45;101181.66;4925779;28;45231;-59
2021/09/27 02:30:13;;;;;;;;;8.50;8.50;;;;;19.70;72.56;101189.53;4908312;28;45399;-59
2021/09/27 02:32:41;;;;;;;;;8.00;6.25;;;;;19.65;72.64;101191.75;4925709;28;45416;-59
2021/09/27 02:35:14;;;;;;;;;11.00;10.25;;;;;19.65;72.55;101187.25;4925649;28;45610;-59
2021/09/27 02:38:00;;;;;;;;;10.00;8.75;;;;;19.65;72.85;101189.94;4925276;28;45410;-59
2021/09/27 02:40:39;;;;;;;;;11.25;9.00;;;;;19.64;72.38;101190.06;4925592;28;45197;-59
2021/09/27 02:43:10;;;;;;;;;9.25;9.25;;;;;19.65;72.55;101187.25;4925340;28;45249;-59
2021/09/27 02:45:38;;;;;;;;;8.00;8.00;;;;;19.66;72.65;101180.94;4925417;28;45268;-59
2021/09/27 02:48:17;;;;;;;;;10.75;8.75;;;;;19.65;72.52;101176.56;4925047;28;45326;-59
2021/09/27 02:50:49;;;;;;;;;8.50;8.50;;;;;19.66;72.52;101174.72;4925504;28;45327;-58
2021/09/27 02:53:16;;;;;;;;;9.00;9.00;;;;;19.66;72.40;101182.75;4925178;28;45253;-59
2021/09/27 02:56:00;;;;;;;;;10.25;9.50;;;;;19.65;72.17;101176.56;4925454;28;45452;-59
2021/09/27 02:58:47;;;;;;;;;9.00;8.25;;;;;19.63;72.83;101183.88;4925103;28;46189;-59
2021/09/27 03:01:38;;;;;;;;;12.00;8.25;;;;;19.63;72.61;101183.88;4924786;28;45396;-58
2021/09/27 03:04:10;;;;;;;;;8.50;7.50;;;;;19.63;72.37;101183.03;4925075;28;45271;-59
2021/09/27 03:07:02;;;;;;;;;12.75;10.00;;;;;19.61;72.49;101185.88;4925257;28;45313;-59
2021/09/27 03:09:54;;;;;;;;;10.25;10.00;;;;;19.59;72.66;101174.47;4924783;28;46369;-58
2021/09/27 03:12:40;;;;;;;;;6.00;6.00;;;;;19.59;72.61;101177.16;4924978;28;45302;-59
2021/09/27 03:15:24;;;;;;;;;10.50;9.50;;;;;19.58;72.50;101174.59;4925003;28;45495;-59
2021/09/27 03:17:59;;;;;;;;;9.75;9.50;;;;;19.57;72.31;101168.41;4924791;28;45217;-59
2021/09/27 03:20:43;;;;;;;;;11.25;9.00;;;;;19.56;72.45;101164.00;4924626;28;47285;-59
2021/09/27 03:23:30;;;;;;;;;9.25;8.00;;;;;19.56;72.61;101166.69;4924582;28;45165;-59
2021/09/27 03:26:14;;;;;;;;;7.75;7.75;;;;;19.58;72.42;101163.91;4925039;28;45278;-59
2021/09/27 03:29:04;;;;;;;;;12.25;9.25;;;;;19.56;72.24;101168.50;4924863;28;45308;-59
2021/09/27 03:31:40;;;;;;;;;13.25;9.50;;;;;19.54;72.41;101168.66;4924610;28;46301;-59
2021/09/27 03:34:08;;;;;;;;;12.75;10.25;;;;;19.53;72.87;101173.16;4924816;28;45309;-59
2021/09/27 03:36:45;;;;;;;;;10.75;9.75;;;;;19.52;72.96;101170.63;4924459;28;45430;-59
2021/09/27 03:39:29;;;;;;;;;9.00;9.00;;;;;19.52;72.61;101175.97;4924811;28;45228;-59
2021/09/27 03:42:05;;;;;;;;;11.75;11.00;;;;;19.51;72.84;101168.91;4924314;28;45392;-59
2021/09/27 03:44:39;;;;;;;;;9.25;9.25;;;;;19.50;72.91;101169.91;4924202;28;45465;-58
2021/09/27 03:47:09;;;;;;;;;10.25;10.00;;;;;19.50;72.92;101186.78;4924797;28;45298;-59
2021/09/27 03:50:17;;;;;;;;;9.25;9.25;;;;;19.50;72.94;101189.44;4907411;28;45515;-59
2021/09/27 03:53:01;;;;;;;;;9.00;9.00;;;;;19.49;72.90;101187.75;4846443;29;45469;-59
2021/09/27 03:55:35;;;;;;;;;10.00;8.75;;;;;19.51;72.99;101180.47;4847144;29;45298;-59
2021/09/27 03:58:09;;;;;;;;;10.25;10.00;;;;;19.52;72.75;101175.97;4896210;28;45412;-58
2021/09/27 04:00:58;;;;;;;;;9.75;9.00;;;;;19.54;72.80;101174.00;4924526;28;45456;-59
2021/09/27 04:04:01;;;;;;;;;10.00;8.00;;;;;19.50;72.39;101184.09;4923866;28;46153;-59
2021/09/27 04:06:45;;;;;;;;;10.00;7.25;;;;;19.49;72.72;101193.09;4923983;28;45250;-59
2021/09/27 04:09:17;;;;;;;;;8.50;8.25;;;;;19.49;72.21;101184.25;4924148;28;45266;-59
2021/09/27 04:11:51;;;;;;;;;8.75;7.50;;;;;19.49;72.48;101178.91;4923018;28;45268;-59
2021/09/27 04:14:30;;;;;;;;;11.25;11.00;;;;;19.50;72.77;101176.09;4923848;28;46081;-59
2021/09/27 04:17:44;;;;;;;;;12.25;9.75;;;;;19.49;72.15;101186.91;4923956;28;45321;-59
2021/09/27 04:20:40;;;;;;;;;5.50;5.00;;;;;19.47;72.49;101178.19;4917057;28;45325;-59
2021/09/27 04:23:22;;;;;;;;;9.00;8.75;;;;;19.46;72.38;101181.88;4910040;28;46296;-59
2021/09/27 04:26:06;;;;;;;;;9.75;9.25;;;;;19.44;72.24;101186.50;4923616;28;46433;-59
2021/09/27 04:29:13;;;;;;;;;9.25;9.00;;;;;19.43;72.57;101179.44;4922891;28;45291;-59
2021/09/27 04:32:08;;;;;;;;;9.00;7.75;;;;;19.42;72.03;101167.06;4923783;28;45444;-55
2021/09/27 04:34:36;;;;;;;;;8.25;7.50;;;;;19.39;71.84;101181.56;4923800;28;45380;-56
2021/09/27 04:37:03;;;;;;;;;11.75;8.00;;;;;19.37;71.83;101172.84;4923382;28;45317;-55
2021/09/27 04:39:36;;;;;;;;;10.25;8.00;;;;;19.34;72.18;101148.22;4923647;28;45212;-54
2021/09/27 04:42:24;;;;;;;;;9.25;8.50;;;;;19.34;72.11;101158.91;4923506;28;45345;-54
2021/09/27 04:45:02;;;;;;;;;9.00;6.00;;;;;19.33;71.74;101150.03;4923648;28;45478;-56
2021/09/27 04:47:36;;;;;;;;;8.25;7.50;;;;;19.33;71.56;101150.03;4923438;28;45632;-56
2021/09/27 04:50:02;;;;;;;;;10.25;7.25;;;;;19.35;72.05;101153.41;4923484;28;45285;-53
2021/09/27 04:52:49;;;;;;;;;8.50;8.00;;;;;19.36;72.16;101149.78;4923639;28;45394;-57
2021/09/27 04:55:51;;;;;;;;;7.75;7.00;;;;;19.38;72.06;101149.66;4923861;28;45308;-55
2021/09/27 04:58:26;;;;;;;;;8.00;8.00;;;;;19.36;71.50;101147.13;4923347;28;45357;-54
2021/09/27 05:01:04;;;;;;;;;7.50;5.75;;;;;19.35;71.39;101150.75;4923080;28;46860;-56
2021/09/27 05:03:47;;;;;;;;;9.50;8.00;;;;;19.35;71.73;101150.75;4923237;28;45321;-54
2021/09/27 05:06:49;;;;;;;;;10.75;9.00;;;;;19.35;71.40;101148.06;4923138;28;45343;-51
2021/09/27 05:09:27;;;;;;;;;11.25;9.00;;;;;19.35;71.40;101144.56;4922985;28;45484;-55
2021/09/27 05:12:20;;;;;;;;;8.25;7.00;;;;;19.32;71.75;101142.16;4922845;28;45320;-56
2021/09/27 05:14:51;;;;;;;;;6.00;6.00;;;;;19.30;71.62;101141.47;4923298;28;45253;-56
2021/09/27 05:17:41;;;;;;;;;6.50;6.00;;;;;19.29;71.67;101132.63;4923218;28;45258;-54
2021/09/27 05:20:16;;;;;;;;;6.00;4.25;;;;;19.28;71.62;101135.44;4922939;28;45419;-56
2021/09/27 05:22:58;;;;;;;;;5.75;5.00;;;;;19.25;71.72;101126.69;4923142;28;46468;-52
2021/09/27 05:26:07;;;;;;;;;9.50;5.00;;;;;19.21;71.12;101117.28;4923283;28;45290;-56
2021/09/27 05:28:38;;;;;;;;;10.00;7.50;;;;;19.20;71.32;101120.09;4878160;28;45369;-55
2021/09/27 05:31:35;;;;;;;;;8.75;7.00;;;;;19.17;71.43;101128.34;4923036;28;45688;-56
2021/09/27 05:34:12;;;;;;;;;7.25;7.25;;;;;19.14;71.42;101132.16;4923224;28;45145;-53
2021/09/27 05:37:06;;;;;;;;;6.00;4.75;;;;;19.13;72.07;101133.16;4922790;28;45522;-53
2021/09/27 05:39:55;;;;;;;;;13.75;11.00;;;;;19.13;72.18;101135.81;4924117;28;45665;-54
2021/09/27 05:42:40;;;;;;;;;10.00;7.00;;;;;19.11;71.79;101132.41;4926286;28;45441;-57
2021/09/27 05:45:20;;;;;;;;;7.00;6.50;;;;;19.13;72.42;101127.81;4908894;28;45336;-56
2021/09/27 05:48:06;;;;;;;;;14.50;12.75;;;;;19.14;72.36;101128.66;4926190;28;45226;-58
2021/09/27 05:50:40;;;;;;;;;8.00;7.50;;;;;19.14;71.81;101118.81;4926676;28;45333;-57
2021/09/27 05:53:14;;;;;;;;;10.75;8.75;;;;;19.14;71.99;101112.63;4925908;28;45329;-58
2021/09/27 05:55:48;;;;;;;;;9.00;6.50;;;;;19.13;71.88;101110.94;4926277;28;45344;-58
2021/09/27 05:58:29;;;;;;;;;13.25;9.00;;;;;19.14;71.76;101118.81;4926168;28;45246;-58
2021/09/27 06:01:23;;;;;;;;;10.00;7.25;;;;;19.11;72.28;101121.72;4922564;28;45409;-58
2021/09/27 06:04:09;;;;;;;;;7.00;5.50;;;;;19.10;72.01;101119.19;4916065;28;45553;-58
2021/09/27 06:06:45;;;;;;;;;11.00;7.50;;;;;19.10;72.52;101137.91;4917182;28;45356;-59
2021/09/27 06:09:49;;;;;;;;;8.00;6.75;;;;;19.13;72.15;101135.81;4919611;28;45391;-59
2021/09/27 06:12:26;;;;;;;;;8.00;7.75;;;;;19.12;72.04;101142.13;4917422;28;45580;-58
2021/09/27 06:14:58;;;;;;;;;8.00;7.00;;;;;19.13;72.02;101132.31;4916405;28;45423;-59
2021/09/27 06:17:30;;;;;;;;;7.25;6.50;;;;;19.14;72.23;101145.50;4918433;28;45510;-58
2021/09/27 06:20:10;;;;;;;;;10.00;7.00;;;;;19.16;72.61;101153.38;4916719;28;45210;-59
2021/09/27 06:22:49;;;;;;;;;7.25;7.25;;;;;19.21;72.38;101159.16;4918794;28;45519;-59
2021/09/27 06:25:42;;;;;;;;;7.50;6.50;;;;;19.24;72.46;101150.88;4917183;28;46089;-58
2021/09/27 06:29:00;;;;;;;;;10.75;7.75;;;;;19.25;72.43;101168.59;4916311;28;45211;-59
2021/09/27 06:31:36;;;;;;;;;6.00;4.75;;;;;19.27;72.14;101163.09;4837924;29;45525;-59
2021/09/27 06:34:15;;;;;;;;;10.00;7.00;;;;;19.30;72.48;101169.03;4837394;29;45428;-59
2021/09/27 06:36:42;;;;;;;;;7.00;5.75;;;;;19.33;72.36;101144.69;4893115;28;45480;-58
2021/09/27 06:39:15;;;;;;;;;5.50;5.50;;;;;19.36;72.29;101156.97;4918953;28;45198;-59
2021/09/27 06:41:41;;;;;;;;;7.00;7.00;;;;;19.39;71.99;101164.69;4917151;28;45322;-59
2021/09/27 06:44:06;;;;;;;;;6.50;6.50;;;;;19.41;71.63;101158.22;4916825;28;45230;-59
2021/09/27 06:46:32;;;;;;;;;10.25;7.50;;;;;19.44;72.11;101168.66;4916107;28;45273;-59
2021/09/27 06:48:58;;;;;;;;;7.00;5.25;;;;;19.46;71.48;101155.97;4916422;28;45262;-58
2021/09/27 06:51:23;;;;;;;;;6.00;6.00;;;;;19.47;71.86;101157.66;4899277;28;45448;-59
2021/09/27 06:53:49;;;;;;;;;6.00;2.75;;;;;19.49;71.83;101160.19;4917719;28;45312;-58
2021/09/27 06:56:14;;;;;;;;;9.75;7.25;;;;;19.49;71.44;101162.88;4918964;28;45796;-58
2021/09/27 06:58:40;;;;;;;;;7.50;6.25;;;;;19.50;71.44;101159.22;4919642;28;45246;-59
2021/09/27 07:01:06;;;;;;;;;8.00;6.00;;;;;19.48;71.92;101154.00;4920139;28;45598;-59
2021/09/27 07:03:32;;;;;;;;;9.25;6.00;;;;;19.49;72.23;101131.66;4917505;28;45423;-58
2021/09/27 07:05:58;;;;;;;;;7.00;6.00;;;;;19.50;72.08;101124.47;4916845;28;46236;-58
2021/09/27 07:08:23;;;;;;;;;6.50;6.25;;;;;19.51;72.60;101144.88;4917196;28;45795;-58
2021/09/27 07:10:51;;;;;;;;;9.75;6.75;;;;;19.49;72.26;101155.69;4920864;28;45445;-59
2021/09/27 07:13:17;;;;;;;;;10.00;8.00;;;;;19.48;72.56;101155.84;4916032;28;45543;-58
2021/09/27 07:15:43;;;;;;;;;8.00;7.00;;;;;19.46;72.38;101158.66;4917164;28;45182;-58
2021/09/27 07:18:09;;;;;;;;;9.00;7.00;;;;;19.47;72.58;101156.81;4916483;28;45310;-58
2021/09/27 07:20:36;;;;;;;;;8.25;7.00;;;;;19.48;72.95;101151.34;4916410;28;45354;-58
2021/09/27 07:23:03;;;;;;;;;10.75;9.75;;;;;19.50;72.58;101156.53;4918629;28;45502;-59
2021/09/27 07:25:31;;;;;;;;;7.50;6.00;;;;;19.50;72.90;101145.84;4916122;28;46171;-59
2021/09/27 07:27:58;;;;;;;;;9.00;7.50;;;;;19.50;72.70;101151.19;4916503;28;45535;-58
2021/09/27 07:30:25;;;;;;;;;7.25;6.50;;;;;19.46;72.97;101155.16;4917971;28;45501;-59
2021/09/27 07:32:52;;;;;;;;;8.00;6.75;;;;;19.42;72.65;101159.06;4915020;28;45382;-59
2021/09/27 07:35:22;;;;;;;;;6.75;6.00;;;;;19.39;73.35;101149.50;4919548;28;45484;-59
2021/09/27 07:37:48;;;;;;;;;9.75;6.50;;;;;19.36;73.25;101133.75;4917974;28;45409;-58
2021/09/27 07:40:17;;;;;;;;;8.00;6.00;;;;;19.34;73.06;101149.06;4920245;28;45263;-58
2021/09/27 07:42:43;;;;;;;;;9.00;8.00;;;;;19.32;73.32;101140.34;4915399;28;45414;-59
2021/09/27 07:45:12;;;;;;;;;9.25;5.25;;;;;19.31;73.45;101146.66;4917723;28;46170;-58
2021/09/27 07:47:37;;;;;;;;;12.75;8.00;;;;;19.30;73.41;101141.47;4915360;28;45439;-59
2021/09/27 07:50:05;;;;;;;;;8.25;6.50;;;;;19.29;73.89;101148.66;4917446;28;45640;-59
2021/09/27 07:52:31;;;;;;;;;11.50;5.75;;;;;19.30;74.09;101146.81;4915228;28;45224;-58
2021/09/27 07:54:56;;;;;;;;;8.75;6.00;;;;;19.31;73.82;101133.31;4917159;28;45420;-59
2021/09/27 07:57:22;;;;;;;;;8.25;7.25;;;;;19.30;73.89;101139.66;4899445;28;45411;-59
2021/09/27 07:59:50;;;;;;;;;9.75;9.75;;;;;19.30;74.05;101134.31;4918349;28;45395;-59
2021/09/27 08:02:18;;;;;;;;;11.00;11.00;;;;;19.30;73.97;101133.47;4915052;28;45321;-58
2021/09/27 08:04:44;;;;;;;;;8.00;6.25;;;;;19.29;73.75;101135.28;4913323;28;45269;-58
2021/09/27 08:07:10;;;;;;;;;13.00;7.00;;;;;19.27;74.27;101142.56;4913847;28;45398;-59
2021/09/27 08:09:35;;;;;;;;;8.75;7.50;;;;;19.27;74.36;101139.06;4918269;28;45339;-59
2021/09/27 08:12:01;;;;;;;;;10.00;6.00;;;;;19.29;74.42;101148.66;4916459;28;45472;-58
2021/09/27 08:14:26;;;;;;;;;8.25;7.25;;;;;19.32;74.30;101132.34;4918416;28;45456;-58
2021/09/27 08:16:52;;;;;;;;;8.00;7.25;;;;;19.34;73.69;101146.38;4913695;28;45334;-58
2021/09/27 08:19:23;;;;;;;;;7.25;7.25;;;;;19.35;74.03;101145.41;4914577;28;45261;-57
2021/09/27 08:21:49;;;;;;;;;8.75;7.25;;;;;19.34;73.88;101153.56;4913483;28;46028;-59
2021/09/27 08:24:14;;;;;;;;;8.75;6.00;;;;;19.33;73.97;101155.38;4915362;28;46374;-58
2021/09/27 08:26:40;;;;;;;;;6.25;6.25;;;;;19.36;73.73;101154.28;4913455;28;45463;-58
2021/09/27 08:29:06;;;;;;;;;9.25;7.25;;;;;19.37;74.00;101154.16;4916341;28;45280;-58
2021/09/27 08:31:32;;;;;;;;;8.00;6.25;;;;;19.39;73.98;101154.00;4913793;28;45287;-59
2021/09/27 08:33:57;;;;;;;;;11.50;8.00;;;;;19.40;73.91;101151.19;4916432;28;45439;-58
2021/09/27 08:36:25;;;;;;;;;8.25;8.25;;;;;19.40;73.85;101137.81;4915217;28;45430;-58
2021/09/27 08:38:51;;;;;;;;;9.25;6.25;;;;;19.43;73.66;101142.91;4917754;28;45472;-58
2021/09/27 08:41:32;;;;;;;;;13.00;7.00;;;;;19.45;73.85;101146.28;4916291;28;45531;-59
2021/09/27 08:44:19;;;;;;;;;10.00;9.00;;;;;19.45;74.18;101124.06;4913245;28;45530;-58
2021/09/27 08:46:53;;;;;;;;;8.75;7.00;;;;;19.46;74.25;101136.44;4915551;28;45345;-58
2021/09/27 08:49:39;;;;;;;;;7.00;7.00;;;;;19.48;74.04;101131.78;4914859;28;45412;-58
2021/09/27 08:52:08;;;;;;;;;8.75;8.00;;;;;19.50;74.05;101133.34;4907189;28;45522;-58
2021/09/27 08:54:35;;;;;;;;;7.00;7.00;;;;;19.52;74.11;101126.03;4915616;28;45452;-59
2021/09/27 08:57:06;;;;;;;;;12.00;9.00;;;;;19.56;74.00;101133.78;4911694;28;45466;-59
2021/09/27 09:00:05;;;;;;;;;8.75;6.50;;;;;19.58;73.80;101126.47;4914768;28;45462;-58
2021/09/27 09:02:46;;;;;;;;;7.25;7.00;;;;;19.60;73.90;101136.06;4857945;28;1637940;-59
2021/09/27 09:05:15;;;;;;;;;16.25;15.50;;;;;19.62;73.64;101123.41;4915686;28;46307;-59
2021/09/27 09:08:01;;;;;;;;;6.50;6.50;;;;;19.65;74.25;101112.41;4913854;28;45345;-59
2021/09/27 09:10:53;;;;;;;;;8.00;7.50;;;;;19.65;73.73;101115.09;4914614;28;45486;-59
2021/09/27 09:13:44;;;;;;;;;12.25;9.75;;;;;19.65;73.59;101132.97;4903787;28;45794;-59
2021/09/27 09:16:15;;;;;;;;;9.50;9.00;;;;;19.67;74.36;101130.97;4905758;28;46461;-59
2021/09/27 09:18:48;;;;;;;;;9.25;9.25;;;;;19.68;73.67;101122.00;4916210;28;45443;-59
2021/09/27 09:21:19;;;;;;;;;9.25;7.75;;;;;19.68;73.64;101130.88;4902298;28;45365;-59
2021/09/27 09:23:52;;;;;;;;;13.00;10.25;;;;;19.66;73.50;101124.78;4914903;28;45324;-59
2021/09/27 09:26:24;;;;;;;;;9.25;8.00;;;;;19.64;73.39;101116.09;4914442;28;45376;-59
2021/09/27 09:28:53;;;;;;;;;11.00;10.00;;;;;19.67;73.93;101109.59;4914637;28;45416;-58
2021/09/27 09:31:23;;;;;;;;;9.25;7.50;;;;;19.68;74.10;101103.31;4914760;28;45459;-60
2021/09/27 09:33:56;;;;;;;;;9.50;7.00;;;;;19.73;73.33;101099.19;4914554;28;45532;-59
2021/09/27 09:36:26;;;;;;;;;9.50;8.00;;;;;19.78;73.54;101098.78;4913498;28;46320;-59
2021/09/27 09:38:53;;;;;;;;;8.00;8.00;;;;;19.83;72.74;101098.34;4913480;28;45441;-59
2021/09/27 09:41:19;;;;;;;;;10.50;7.00;;;;;19.89;72.54;101106.66;4913669;28;45502;-59
2021/09/27 09:43:49;;;;;;;;;7.25;7.00;;;;;19.95;73.17;101098.06;4914266;28;45472;-59
2021/09/27 09:46:18;;;;;;;;;8.75;8.00;;;;;20.04;73.17;101121.25;4897385;28;46870;-59
2021/09/27 09:49:07;;;;;;;;;10.00;7.75;;;;;20.15;72.30;101116.75;4917219;28;45329;-59
2021/09/27 09:51:45;;;;;;;;;9.25;8.50;;;;;20.21;72.13;101116.16;4915046;28;45309;-59
2021/09/27 09:54:17;;;;;;;;;8.25;8.25;;;;;20.27;71.79;101118.28;4912950;28;45345;-59
2021/09/27 09:57:05;;;;;;;;;6.75;6.50;;;;;20.29;72.32;101127.84;4915715;28;45471;-59
2021/09/27 09:59:36;;;;;;;;;7.00;7.00;;;;;20.30;71.75;101134.91;4896701;28;45559;-59
2021/09/27 10:02:07;;;;;;;;;5.75;4.25;;;;;20.31;72.01;101130.38;4914081;28;45483;-59
2021/09/27 10:04:42;;;;;;;;;6.75;5.25;;;;;20.33;71.40;101136.44;4915073;28;45416;-60
2021/09/27 10:07:16;;;;;;;;;8.00;6.25;;;;;20.35;71.67;101126.41;4913326;28;45590;-59
2021/09/27 10:09:57;;;;;;;;;7.25;7.25;;;;;20.36;71.50;101131.63;4916738;28;45281;-60
2021/09/27 10:12:43;;;;;;;;;5.75;5.75;;;;;20.33;71.36;101121.22;4917228;28;45472;-59
2021/09/27 10:15:36;;;;;;;;;6.00;6.00;;;;;20.32;70.84;101121.38;4915671;28;45222;-59
2021/09/27 10:18:05;;;;;;;;;8.25;8.00;;;;;20.30;70.92;101123.31;4915743;28;46219;-59
2021/09/27 10:20:40;;;;;;;;;7.75;6.00;;;;;20.28;71.14;101120.78;4914252;28;45443;-60
2021/09/27 10:23:12;;;;;;;;;7.00;7.00;;;;;20.28;71.00;101134.19;4912857;28;45305;-60
2021/09/27 10:25:48;;;;;;;;;8.25;6.25;;;;;20.26;70.92;101143.34;4916656;28;45262;-60
2021/09/27 10:28:18;;;;;;;;;6.00;6.00;;;;;20.17;71.06;101126.31;4916019;28;45318;-61
2021/09/27 10:30:48;;;;;;;;;5.50;4.25;;;;;20.10;71.22;101132.38;4902288;28;45602;-60
2021/09/27 10:33:21;;;;;;;;;7.75;6.00;;;;;20.03;71.49;101130.28;4917968;28;45250;-60
2021/09/27 10:35:58;;;;;;;;;6.75;5.00;;;;;19.96;71.85;101134.50;4917863;28;45551;-60
2021/09/27 10:38:32;;;;;;;;;7.00;5.75;;;;;19.90;72.11;101140.41;4920666;28;46424;-59
2021/09/27 10:41:07;;;;;;;;;6.25;6.00;;;;;19.89;72.22;101145.91;4919270;28;45385;-60
2021/09/27 10:43:33;;;;;;;;;9.50;6.75;;;;;19.87;72.47;101137.19;4916605;28;45170;-61
2021/09/27 10:46:02;;;;;;;;;5.75;5.75;;;;;19.87;72.46;101145.22;4915940;28;45549;-60
2021/09/27 10:48:29;;;;;;;;;5.50;4.00;;;;;19.82;72.81;101142.09;4917243;28;45487;-60
2021/09/27 10:50:59;;;;;;;;;6.50;6.00;;;;;19.83;72.67;101143.78;4915117;28;45437;-59
2021/09/27 10:53:33;;;;;;;;;5.25;5.00;;;;;19.84;73.04;101146.34;4920793;28;45415;-61
2021/09/27 10:56:07;;;;;;;;;7.25;5.50;;;;;19.80;73.17;101137.75;4916553;28;45443;-59
2021/09/27 10:58:43;;;;;;;;;8.75;5.00;;;;;19.80;73.23;101147.59;4916199;28;46394;-59
2021/09/27 11:01:29;;;;;;;;;6.25;6.25;;;;;19.78;73.49;101147.75;4916931;28;45282;-60
2021/09/27 11:03:56;;;;;;;;;5.00;4.25;;;;;19.78;73.84;101139.72;4915505;28;45234;-58
2021/09/27 11:06:36;;;;;;;;;4.75;4.25;;;;;19.78;74.00;101145.06;4918611;28;45497;-59
2021/09/27 11:09:24;;;;;;;;;7.00;6.00;;;;;19.78;73.66;101139.72;4917513;28;46153;-58
2021/09/27 11:12:12;;;;;;;;;6.50;5.25;;;;;19.78;73.71;101139.72;4914414;28;45355;-58
2021/09/27 11:14:52;;;;;;;;;7.00;5.50;;;;;19.83;73.93;101135.78;4915530;28;45532;-59
2021/09/27 11:17:48;;;;;;;;;6.00;6.00;;;;;19.88;74.14;101137.03;4917952;28;45191;-59
2021/09/27 11:20:16;;;;;;;;;6.00;6.00;;;;;19.91;74.45;101146.63;4896830;28;46198;-59
2021/09/27 11:23:00;;;;;;;;;10.75;8.75;;;;;19.86;74.07;101254.00;4916005;28;45634;-60
2021/09/27 11:25:25;;;;;;;;;1.00;1.00;;;;;19.50;69.75;101250.91;4916350;28;45427;-60
2021/09/27 11:28:41;;;;;;;;;2.00;1.00;;;;;18.90;69.06;101252.63;4916203;28;45337;-60
2021/09/27 11:31:16;;;;;;;;;2.75;2.00;;;;;18.58;69.28;101260.69;4909512;28;45845;-59
2021/09/27 11:33:41;;;;;;;;;1.75;1.00;;;;;18.45;70.15;101265.34;4916263;28;45271;-59
2021/09/27 11:36:13;;;;;;;;;3.00;0.00;;;;;18.36;70.21;101274.97;4917590;28;45908;-60
2021/09/27 11:38:44;;;;;;;;;1.00;0.75;;;;;18.24;69.78;101272.47;4920191;28;45549;-59
2021/09/27 11:41:10;;;;;;;;;0.25;0.00;;;;;18.13;69.76;101274.22;4914800;28;45562;-59
2021/09/27 11:43:35;;;;;;;;;0.00;0.00;;;;;18.07;70.38;101282.72;4918046;28;45499;-59
2021/09/27 11:46:05;;;;;;;;;1.00;0.00;;;;;18.05;70.77;101287.34;4916496;28;45265;-59
2021/09/27 11:48:34;;;;;;;;;0.00;0.00;;;;;18.06;70.34;101290.84;4919476;28;45563;-60
2021/09/27 11:51:07;;;;;;;;;5.00;4.25;;;;;18.03;70.20;101291.13;4917218;28;45434;-59
2021/09/27 11:53:43;;;;;;;;;3.00;3.00;;;;;18.02;70.50;101300.09;4914486;28;45535;-59
2021/09/27 11:56:14;;;;;;;;;3.50;2.50;;;;;18.03;70.43;101296.44;4914385;28;45453;-59
2021/09/27 11:59:21;;;;;;;;;1.00;0.00;;;;;18.07;70.21;101314.72;4915467;28;45242;-58
2021/09/27 12:01:52;;;;;;;;;1.00;1.00;;;;;18.05;70.64;101308.66;4914840;28;46257;-58
2021/09/27 12:05:10;;;;;;;;;4.00;2.50;;;;;18.05;70.87;101324.66;4915306;28;45431;-59